Time;durP1;ratioP1;P1;durP2;ratioP2;P2;SDS_P1;SDS_P2;PMS_P1;PMS_P2;Temp;Humidity;BMP_temperature;BMP_pressure;BME280_temperature;BME280_humidity;BME280_pressure;Samples;Min_cycle;Max_cycle;Signal;HPM_P1;HPM_P2
2023/11/13 00:04:34;;;;;;;8.98;7.60;;;;;;;8.79;85.63;99578.19;10211421;28;20086;-66
2023/11/13 00:09:36;;;;;;;7.80;6.95;;;;;;;8.78;85.60;99566.75;10210757;28;20051;-67
2023/11/13 00:14:38;;;;;;;7.47;6.68;;;;;;;8.73;85.63;99555.66;10205639;28;20070;-67
2023/11/13 00:19:47;;;;;;;7.78;6.38;;;;;;;8.63;86.10;99526.44;10199606;28;20434;-66
2023/11/13 00:24:49;;;;;;;6.90;6.20;;;;;;;8.69;86.03;99546.25;10197883;28;20051;-67
2023/11/13 00:29:51;;;;;;;7.53;6.18;;;;;;;8.78;86.08;99545.53;10204887;28;20066;-67
2023/11/13 00:34:53;;;;;;;8.40;5.95;;;;;;;8.80;85.63;99532.94;10206216;28;20055;-68
2023/11/13 00:39:54;;;;;;;6.35;5.53;;;;;;;8.80;85.73;99542.72;10196498;28;20049;-68
2023/11/13 00:44:56;;;;;;;7.22;4.78;;;;;;;8.83;85.81;99527.38;10210358;28;20140;-67
2023/11/13 00:49:57;;;;;;;5.75;4.30;;;;;;;8.85;85.02;99525.44;10204359;28;20235;-68
2023/11/13 00:54:59;;;;;;;6.85;4.13;;;;;;;8.84;84.78;99529.06;10203723;28;20062;-68
2023/11/13 01:00:09;;;;;;;4.53;3.67;;;;;;;8.88;84.60;99515.53;10217448;28;20056;-67
2023/11/13 01:05:12;;;;;;;3.22;2.83;;;;;;;8.78;84.01;99526.09;10202223;28;20190;-68
2023/11/13 01:10:14;;;;;;;5.07;2.90;;;;;;;8.70;83.58;99526.72;10206936;28;20151;-67
2023/11/13 01:15:16;;;;;;;3.22;2.85;;;;;;;8.67;82.79;99511.91;10211128;28;21025;-66
2023/11/13 01:20:18;;;;;;;4.45;3.00;;;;;;;8.62;82.74;99507.97;10216869;28;20131;-67
2023/11/13 01:25:19;;;;;;;4.05;2.85;;;;;;;8.64;83.72;99501.56;10212987;28;20054;-67
2023/11/13 01:30:21;;;;;;;3.75;3.35;;;;;;;8.70;82.78;99513.47;10216356;28;20047;-67
2023/11/13 01:35:25;;;;;;;4.03;3.20;;;;;;;8.66;83.09;99515.56;10197739;28;20669;-67
2023/11/13 01:40:27;;;;;;;5.85;3.10;;;;;;;8.69;83.08;99498.50;10206821;28;20520;-67
2023/11/13 01:45:29;;;;;;;5.25;3.15;;;;;;;8.65;83.22;99489.97;10202946;28;20058;-66
2023/11/13 01:50:31;;;;;;;4.05;2.95;;;;;;;8.68;83.70;99480.94;10222564;28;20067;-66
2023/11/13 01:55:33;;;;;;;4.05;3.28;;;;;;;8.73;83.54;99491.97;10210037;28;20202;-66
2023/11/13 02:00:34;;;;;;;3.38;2.67;;;;;;;8.56;83.35;99495.25;10199435;28;20048;-66
2023/11/13 02:05:38;;;;;;;3.55;3.15;;;;;;;8.57;83.93;99494.25;10227453;28;20070;-66
2023/11/13 02:10:39;;;;;;;3.47;3.05;;;;;;;8.60;83.89;99480.72;10201564;28;20070;-66
2023/11/13 02:15:41;;;;;;;3.58;3.17;;;;;;;8.62;84.65;99471.66;10221155;28;20055;-66
2023/11/13 02:20:43;;;;;;;4.72;3.28;;;;;;;8.54;85.98;99466.19;10207302;28;20200;-66
2023/11/13 02:25:50;;;;;;;3.55;3.25;;;;;;;8.48;87.00;99466.69;10211727;28;20071;-66
2023/11/13 02:30:52;;;;;;;4.25;3.30;;;;;;;8.40;87.71;99461.16;10202571;28;20059;-67
2023/11/13 02:35:56;;;;;;;4.05;3.08;;;;;;;8.37;88.48;99445.50;10212654;28;20074;-66
2023/11/13 02:40:58;;;;;;;3.60;3.30;;;;;;;8.38;89.46;99442.72;10204095;28;20126;-66
2023/11/13 02:45:59;;;;;;;3.97;3.25;;;;;;;8.39;89.57;99444.41;10207035;28;20115;-67
2023/11/13 02:51:00;;;;;;;4.65;3.08;;;;;;;8.40;89.56;99442.59;10210795;28;20142;-66
2023/11/13 02:56:02;;;;;;;3.25;2.83;;;;;;;8.48;89.86;99443.66;10208162;28;20066;-67
2023/11/13 03:01:04;;;;;;;3.75;3.30;;;;;;;8.49;89.50;99416.16;10202546;28;20755;-67
2023/11/13 03:06:06;;;;;;;2.88;2.60;;;;;;;8.47;90.08;99407.50;10206868;28;20138;-68
2023/11/13 03:11:08;;;;;;;3.55;3.10;;;;;;;8.49;89.78;99402.88;10213035;28;20116;-67
2023/11/13 03:16:11;;;;;;;3.10;2.45;;;;;;;8.52;89.75;99422.19;10204832;28;20048;-67
2023/11/13 03:21:13;;;;;;;3.92;2.72;;;;;;;8.47;90.21;99431.38;10209142;28;20043;-67
2023/11/13 03:26:17;;;;;;;3.67;3.25;;;;;;;8.51;90.52;99439.91;10222878;28;20134;-67
2023/11/13 03:31:19;;;;;;;5.00;3.35;;;;;;;8.49;90.47;99445.31;10223213;28;20062;-66
2023/11/13 03:36:20;;;;;;;2.90;2.70;;;;;;;8.44;90.42;99442.25;10205010;28;20505;-67
2023/11/13 03:41:22;;;;;;;2.80;2.47;;;;;;;8.47;90.79;99441.97;10206283;28;20096;-66
2023/11/13 03:46:25;;;;;;;3.30;2.47;;;;;;;8.51;90.92;99452.31;10203735;28;20062;-67
2023/11/13 03:51:27;;;;;;;4.18;2.83;;;;;;;8.52;90.72;99451.38;10191550;28;20043;-67
2023/11/13 03:56:28;;;;;;;3.47;3.10;;;;;;;8.52;91.09;99454.84;10207601;28;20129;-67
2023/11/13 04:01:30;;;;;;;2.90;2.53;;;;;;;8.42;91.17;99432.69;10201168;28;20055;-66
2023/11/13 04:06:31;;;;;;;4.28;2.92;;;;;;;8.50;91.61;99422.31;10207929;28;20146;-66
2023/11/13 04:11:33;;;;;;;3.38;2.65;;;;;;;8.48;91.63;99395.94;10200951;28;20064;-66
2023/11/13 04:16:34;;;;;;;3.40;3.10;;;;;;;8.49;92.12;99392.28;10212889;28;20058;-67
2023/11/13 04:21:36;;;;;;;3.17;2.88;;;;;;;8.47;92.49;99388.94;10201020;28;20054;-67
2023/11/13 04:26:37;;;;;;;4.45;3.60;;;;;;;8.54;92.33;99391.06;10214859;28;20589;-66
2023/11/13 04:31:39;;;;;;;3.97;3.50;;;;;;;8.60;92.50;99399.34;10206710;28;20043;-66
2023/11/13 04:36:41;;;;;;;3.47;3.17;;;;;;;8.48;92.85;99395.06;10183878;28;20134;-66
2023/11/13 04:41:43;;;;;;;2.95;2.70;;;;;;;8.58;93.06;99400.44;10204103;28;20047;-65
2023/11/13 04:46:44;;;;;;;3.22;2.92;;;;;;;8.60;93.42;99409.09;10205022;28;20047;-66
2023/11/13 04:51:47;;;;;;;3.85;3.00;;;;;;;8.58;93.55;99417.19;10177033;28;20086;-66
2023/11/13 04:56:48;;;;;;;3.45;3.15;;;;;;;8.52;93.82;99427.50;10204109;28;20134;-67
2023/11/13 05:01:50;;;;;;;3.40;3.00;;;;;;;8.51;94.06;99409.88;10200143;28;21344;-66
2023/11/13 05:06:52;;;;;;;2.92;2.60;;;;;;;8.45;94.17;99417.41;10208056;28;20050;-66
2023/11/13 05:11:53;;;;;;;2.17;1.98;;;;;;;8.43;94.71;99410.50;10227853;28;20107;-67
2023/11/13 05:16:56;;;;;;;2.60;2.40;;;;;;;8.43;94.47;99424.59;10222364;28;20154;-67
2023/11/13 05:21:57;;;;;;;2.70;2.50;;;;;;;8.47;94.70;99396.06;10220934;28;20685;-67
2023/11/13 05:26:59;;;;;;;2.80;2.60;;;;;;;8.46;94.35;99394.38;10203494;28;20580;-67
2023/11/13 05:32:01;;;;;;;2.38;2.17;;;;;;;8.52;94.16;99395.66;10201914;28;20066;-66
2023/11/13 05:37:03;;;;;;;2.40;2.20;;;;;;;8.51;94.53;99400.09;10199921;28;20066;-67
2023/11/13 05:42:05;;;;;;;2.25;2.00;;;;;;;8.56;94.66;99423.63;10205808;28;20055;-67
2023/11/13 05:47:06;;;;;;;2.63;2.42;;;;;;;8.51;94.74;99447.84;10205662;28;20083;-67
2023/11/13 05:52:08;;;;;;;2.60;2.30;;;;;;;8.53;95.42;99440.63;10200593;28;20051;-67
2023/11/13 05:57:10;;;;;;;3.13;2.28;;;;;;;8.59;95.15;99455.19;10205362;28;20055;-67
2023/11/13 06:02:11;;;;;;;2.22;2.00;;;;;;;8.59;95.41;99452.53;10219869;28;20137;-67
2023/11/13 06:07:14;;;;;;;3.42;2.10;;;;;;;8.65;95.53;99465.28;10198478;28;20063;-67
2023/11/13 06:12:15;;;;;;;2.60;2.20;;;;;;;8.61;95.88;99462.03;10220366;28;20134;-68
2023/11/13 06:17:23;;;;;;;2.72;2.20;;;;;;;8.63;96.05;99440.66;10212500;28;20058;-68
2023/11/13 06:22:24;;;;;;;2.95;2.20;;;;;;;8.61;96.20;99422.22;10205925;28;20597;-67
2023/11/13 06:27:26;;;;;;;2.92;2.50;;;;;;;8.55;96.41;99411.31;10208180;28;20054;-69
2023/11/13 06:32:30;;;;;;;2.83;2.53;;;;;;;8.44;97.20;99415.72;10209496;28;20051;-68
2023/11/13 06:37:32;;;;;;;;;;;;;;;8.41;97.57;99436.34;10222202;28;20043;-67
2023/11/13 06:42:34;;;;;;;2.88;2.60;;;;;;;8.41;97.55;99434.50;10217474;28;19967;-67
2023/11/13 06:47:35;;;;;;;3.35;3.00;;;;;;;8.39;97.92;99438.25;10208369;28;20053;-68
2023/11/13 06:52:37;;;;;;;3.47;3.17;;;;;;;8.43;97.92;99437.88;10213934;28;20051;-67
2023/11/13 06:57:41;;;;;;;3.35;3.05;;;;;;;8.48;98.16;99427.75;10208716;28;20525;-68
2023/11/13 07:02:50;;;;;;;4.07;3.50;;;;;;;8.42;98.82;99424.72;10216341;28;20652;-68
2023/11/13 07:07:55;;;;;;;6.57;4.78;;;;;;;8.42;99.42;99433.56;10203191;28;20393;-68
2023/11/13 07:12:58;;;;;;;6.13;5.10;;;;;;;8.37;100.00;99419.81;10198612;28;20061;-68
2023/11/13 07:18:00;;;;;;;8.32;5.90;;;;;;;8.42;100.00;99430.91;10205109;28;20061;-69
2023/11/13 07:23:03;;;;;;;6.53;4.82;;;;;;;8.46;100.00;99419.06;10204207;28;20065;-68
2023/11/13 07:28:04;;;;;;;5.90;5.05;;;;;;;8.51;100.00;99421.31;10208467;28;20572;-67
2023/11/13 07:33:07;;;;;;;6.07;5.47;;;;;;;8.49;100.00;99416.16;10188214;28;20063;-67
2023/11/13 07:38:09;;;;;;;6.07;5.15;;;;;;;8.54;100.00;99414.94;10206292;28;20141;-67
2023/11/13 07:43:11;;;;;;;7.55;5.90;;;;;;;8.51;100.00;99409.88;10207930;28;20238;-67
2023/11/13 07:48:13;;;;;;;7.03;4.72;;;;;;;8.55;100.00;99422.75;10205658;28;20057;-68
2023/11/13 07:53:14;;;;;;;6.95;5.50;;;;;;;8.58;100.00;99434.91;10212938;28;20055;-68
2023/11/13 07:58:16;;;;;;;5.90;4.80;;;;;;;8.60;100.00;99456.84;10205402;28;20051;-68
2023/11/13 08:03:20;;;;;;;7.53;6.30;;;;;;;8.63;100.00;99470.72;10205243;28;20466;-68
2023/11/13 08:08:24;;;;;;;6.75;5.88;;;;;;;8.73;100.00;99464.63;10204138;28;20055;-66
2023/11/13 08:13:28;;;;;;;6.25;5.40;;;;;;;8.80;100.00;99461.31;10198645;28;21196;-67
2023/11/13 08:18:30;;;;;;;8.45;5.70;;;;;;;8.83;100.00;99447.75;10204760;28;20097;-67
2023/11/13 08:23:31;;;;;;;6.50;5.35;;;;;;;8.89;100.00;99448.19;10208383;28;20524;-67
2023/11/13 08:28:33;;;;;;;8.30;6.32;;;;;;;8.94;100.00;99427.44;10204260;28;20059;-67
2023/11/13 08:33:35;;;;;;;6.40;5.80;;;;;;;8.95;100.00;99421.16;10206807;28;20538;-68
2023/11/13 08:38:37;;;;;;;7.10;5.10;;;;;;;9.03;100.00;99408.88;10212594;28;20252;-68
2023/11/13 08:43:38;;;;;;;7.05;5.88;;;;;;;9.17;100.00;99404.16;10206462;28;20194;-66
2023/11/13 08:48:42;;;;;;;7.13;6.43;;;;;;;9.23;100.00;99392.16;10208118;28;20066;-67
2023/11/13 08:53:47;;;;;;;7.25;5.68;;;;;;;9.32;100.00;99375.41;10205208;28;20414;-67
2023/11/13 08:58:52;;;;;;;8.13;6.03;;;;;;;9.36;100.00;99369.69;10198285;28;22957;-68
2023/11/13 09:03:59;;;;;;;6.95;5.60;;;;;;;9.40;100.00;99372.91;10217583;28;20095;-67
2023/11/13 09:09:11;;;;;;;8.48;6.40;;;;;;;9.38;100.00;99377.50;10202446;28;20059;-68
2023/11/13 09:14:17;;;;;;;7.50;6.63;;;;;;;9.38;100.00;99383.69;10206658;28;20047;-68
2023/11/13 09:19:19;;;;;;;7.05;6.00;;;;;;;9.36;100.00;99375.00;10208209;28;20075;-66
2023/11/13 09:24:21;;;;;;;6.70;5.35;;;;;;;9.43;100.00;99387.72;10199488;28;20598;-68
2023/11/13 09:29:23;;;;;;;6.95;5.25;;;;;;;9.40;100.00;99364.94;10219591;28;20142;-68
2023/11/13 09:34:25;;;;;;;6.88;5.05;;;;;;;9.34;100.00;99346.91;10213556;28;20055;-68
2023/11/13 09:39:32;;;;;;;6.30;5.45;;;;;;;9.53;100.00;99385.91;10208516;28;20063;-68
2023/11/13 09:44:37;;;;;;;7.75;5.40;;;;;;;9.52;100.00;99352.38;10212417;28;20106;-68
2023/11/13 09:50:16;;;;;;;8.73;6.10;;;;;;;9.50;100.00;99339.25;10208702;28;20055;-68
2023/11/13 09:55:20;;;;;;;5.60;4.93;;;;;;;9.57;100.00;99333.38;10212137;28;20099;-68
2023/11/13 10:00:24;;;;;;;6.43;5.15;;;;;;;9.65;100.00;99330.84;10209544;28;20445;-67
2023/11/13 10:05:26;;;;;;;8.55;5.13;;;;;;;9.66;100.00;99304.13;10212791;28;20146;-68
2023/11/13 10:10:28;;;;;;;6.97;5.68;;;;;;;9.71;100.00;99287.75;10204879;28;20528;-68
2023/11/13 10:15:32;;;;;;;7.97;5.70;;;;;;;9.75;100.00;99267.88;10203070;28;20146;-70
2023/11/13 10:20:42;;;;;;;7.22;5.50;;;;;;;9.80;100.00;99265.63;10222590;28;20043;-71
2023/11/13 10:25:50;;;;;;;6.80;6.00;;;;;;;9.80;100.00;99270.94;10207456;28;20055;-71
2023/11/13 10:30:51;;;;;;;9.57;6.53;;;;;;;9.94;100.00;99274.13;10206524;28;20058;-70
2023/11/13 10:36:04;;;;;;;6.75;5.72;;;;;;;10.02;100.00;99258.31;10207351;28;20051;-70
2023/11/13 10:41:07;;;;;;;12.80;7.15;;;;;;;10.06;100.00;99241.09;10207505;28;20193;-68
2023/11/13 10:46:09;;;;;;;9.00;6.45;;;;;;;10.13;100.00;99231.53;10205411;28;20051;-69
2023/11/13 10:51:14;;;;;;;7.68;5.55;;;;;;;10.19;100.00;99228.31;10211409;28;20118;-67
2023/11/13 10:56:17;;;;;;;6.72;5.57;;;;;;;10.26;100.00;99217.94;10207528;28;20059;-68
2023/11/13 11:01:28;;;;;;;6.47;5.88;;;;;;;10.29;100.00;99207.00;10194434;28;20058;-68
2023/11/13 11:06:35;;;;;;;7.22;5.38;;;;;;;10.28;100.00;99194.66;10206575;28;20047;-67
2023/11/13 11:11:37;;;;;;;6.78;4.88;;;;;;;10.25;100.00;99168.38;10209619;28;20106;-67
2023/11/13 11:17:04;;;;;;;6.32;5.32;;;;;;;10.31;100.00;99156.31;10210559;28;20657;-67
2023/11/13 11:22:36;;;;;;;7.80;5.28;;;;;;;10.37;100.00;99131.78;10198892;28;20272;-68
2023/11/13 11:27:43;;;;;;;8.35;5.65;;;;;;;10.42;100.00;99124.22;10194492;28;20051;-66
2023/11/13 11:33:05;;;;;;;6.78;4.65;;;;;;;10.45;100.00;99113.28;10211130;28;20067;-68
2023/11/13 11:38:22;;;;;;;6.57;4.40;;;;;;;10.52;100.00;99105.50;10204524;28;20216;-66
2023/11/13 11:43:35;;;;;;;7.38;5.22;;;;;;;10.43;100.00;99075.31;10204469;28;20055;-66
2023/11/13 11:48:37;;;;;;;7.18;6.47;;;;;;;10.60;100.00;99082.50;10208567;28;20058;-67
2023/11/13 11:53:58;;;;;;;10.68;9.57;;;;;;;10.66;100.00;99069.53;10207885;28;20055;-68
2023/11/13 11:58:59;;;;;;;10.35;6.80;;;;;;;10.70;100.00;99061.09;10201673;28;20138;-68
2023/11/13 12:04:01;;;;;;;16.73;14.95;;;;;;;10.73;100.00;99039.53;10199779;28;20703;-67
2023/11/13 12:09:04;;;;;;;6.22;4.35;;;;;;;10.81;100.00;99029.91;10201707;28;20697;-67
2023/11/13 12:14:05;;;;;;;5.05;3.40;;;;;;;10.87;100.00;99024.81;10203775;28;20051;-69
2023/11/13 12:19:09;;;;;;;4.93;3.67;;;;;;;10.92;100.00;99011.03;10207329;28;20047;-67
2023/11/13 12:24:16;;;;;;;5.35;3.75;;;;;;;10.94;100.00;99001.91;10198001;28;20047;-68
2023/11/13 12:29:19;;;;;;;4.70;3.75;;;;;;;11.06;100.00;99004.28;10190626;28;20106;-69
2023/11/13 12:34:20;;;;;;;5.05;3.97;;;;;;;11.05;100.00;98984.84;10198420;28;20192;-66
2023/11/13 12:39:27;;;;;;;5.65;3.92;;;;;;;11.07;100.00;98969.53;10217010;28;20563;-67
2023/11/13 12:44:30;;;;;;;5.78;3.75;;;;;;;11.09;100.00;98958.72;10202203;28;20582;-67
2023/11/13 12:49:32;;;;;;;5.88;4.40;;;;;;;11.11;100.00;98946.91;10200207;28;20066;-67
2023/11/13 12:54:35;;;;;;;5.03;4.38;;;;;;;11.21;100.00;98941.44;10197328;28;20057;-68
2023/11/13 12:59:37;;;;;;;5.38;4.80;;;;;;;11.28;100.00;98942.50;10202821;28;20055;-69
2023/11/13 13:04:40;;;;;;;7.18;5.20;;;;;;;11.30;100.00;98919.19;10203647;28;20137;-67
2023/11/13 13:09:44;;;;;;;6.00;5.40;;;;;;;11.38;100.00;98909.53;10201005;28;20520;-67
2023/11/13 13:14:46;;;;;;;5.03;4.60;;;;;;;11.46;100.00;98897.09;10203971;28;20063;-65
2023/11/13 13:19:48;;;;;;;5.38;4.80;;;;;;;11.53;100.00;98891.97;10200951;28;20163;-66
2023/11/13 13:24:53;;;;;;;4.63;4.18;;;;;;;11.57;100.00;98877.28;10198578;28;20055;-65
2023/11/13 13:29:55;;;;;;;5.05;4.40;;;;;;;11.65;100.00;98879.97;10198558;28;20146;-66
2023/11/13 13:34:56;;;;;;;7.63;4.75;;;;;;;11.70;100.00;98871.50;10202232;28;20078;-65
2023/11/13 13:39:58;;;;;;;4.30;3.85;;;;;;;11.75;100.00;98847.00;10201689;28;20521;-66
2023/11/13 13:44:59;;;;;;;4.85;4.07;;;;;;;11.85;100.00;98853.84;10198777;28;20614;-66
2023/11/13 13:50:01;;;;;;;6.40;3.70;;;;;;;11.91;100.00;98852.34;10200132;28;20604;-65
2023/11/13 13:55:09;;;;;;;6.25;3.50;;;;;;;11.99;100.00;98838.22;10200583;28;20055;-65
2023/11/13 14:00:28;;;;;;;4.22;3.47;;;;;;;12.05;100.00;98826.03;10196962;28;20155;-66
2023/11/13 14:05:38;;;;;;;5.38;3.10;;;;;;;12.11;100.00;98825.38;10197051;28;20574;-67
2023/11/13 14:10:43;;;;;;;4.70;2.95;;;;;;;12.14;100.00;98839.19;10197324;28;20811;-67
2023/11/13 14:15:47;;;;;;;4.25;2.60;;;;;;;12.22;100.00;98843.72;10208658;28;20059;-67
2023/11/13 14:21:13;;;;;;;4.78;2.72;;;;;;;12.38;100.00;98830.34;10195485;28;20043;-67
2023/11/13 14:26:14;;;;;;;4.57;2.40;;;;;;;12.40;100.00;98830.19;10208152;28;20043;-68
2023/11/13 14:31:16;;;;;;;4.15;2.40;;;;;;;12.52;100.00;98817.28;10209032;28;20708;-67
2023/11/13 14:36:18;;;;;;;3.22;2.15;;;;;;;12.53;100.00;98786.91;10209659;28;20055;-68
2023/11/13 14:41:19;;;;;;;5.55;2.85;;;;;;;12.60;100.00;98793.25;10206937;28;20066;-67
2023/11/13 14:46:21;;;;;;;3.95;2.30;;;;;;;12.60;100.00;98773.72;10206063;28;20082;-67
2023/11/13 14:51:22;;;;;;;5.85;2.40;;;;;;;12.66;100.00;98773.03;10203073;28;20474;-67
2023/11/13 14:56:24;;;;;;;2.90;2.13;;;;;;;12.71;100.00;98763.47;10204513;28;20794;-67
2023/11/13 15:01:25;;;;;;;5.43;2.08;;;;;;;12.70;100.00;98734.28;10211367;28;20070;-66
2023/11/13 15:06:27;;;;;;;5.30;1.98;;;;;;;12.79;100.00;98735.09;10203245;28;20225;-67
2023/11/13 15:11:29;;;;;;;4.30;2.88;;;;;;;12.87;100.00;98735.06;10205593;28;20100;-67
2023/11/13 15:16:30;;;;;;;3.05;1.90;;;;;;;12.87;100.00;98700.34;10204031;28;20043;-68
2023/11/13 15:21:37;;;;;;;2.10;1.65;;;;;;;12.89;100.00;98695.66;10206263;28;20047;-67
2023/11/13 15:26:38;;;;;;;3.85;1.80;;;;;;;12.96;100.00;98688.59;10207653;28;20134;-68
2023/11/13 15:31:40;;;;;;;2.72;1.67;;;;;;;13.01;100.00;98683.53;10204027;28;20132;-67
2023/11/13 15:36:42;;;;;;;4.82;1.50;;;;;;;13.06;100.00;98683.00;10220180;28;20051;-67
2023/11/13 15:41:43;;;;;;;2.45;1.15;;;;;;;13.11;100.00;98650.44;10203657;28;20819;-68
2023/11/13 15:46:45;;;;;;;2.53;0.85;;;;;;;13.07;100.00;98650.78;10206261;28;20470;-67
2023/11/13 15:51:48;;;;;;;1.55;0.65;;;;;;;13.16;100.00;98648.06;10207193;28;20047;-65
2023/11/13 15:56:49;;;;;;;1.60;0.90;;;;;;;13.16;100.00;98662.22;10201905;28;20043;-67
2023/11/13 16:01:51;;;;;;;1.63;0.73;;;;;;;13.26;100.00;98648.63;10204446;28;20082;-67
2023/11/13 16:07:06;;;;;;;1.83;0.60;;;;;;;13.29;100.00;98655.47;10201508;28;20057;-68
2023/11/13 16:12:08;;;;;;;2.25;1.05;;;;;;;13.33;100.00;98636.22;10187010;28;20051;-67
2023/11/13 16:17:10;;;;;;;2.22;1.08;;;;;;;13.29;100.00;98637.59;10209478;28;20149;-67
2023/11/13 16:22:12;;;;;;;2.42;0.77;;;;;;;13.37;100.00;98640.22;10197287;28;20972;-66
2023/11/13 16:27:13;;;;;;;1.30;0.60;;;;;;;13.34;100.00;98635.22;10205034;28;20619;-66
2023/11/13 16:32:15;;;;;;;1.10;0.50;;;;;;;13.45;100.00;98647.34;10204542;28;20243;-66
2023/11/13 16:37:18;;;;;;;3.70;0.70;;;;;;;13.47;100.00;98645.31;10208127;28;20051;-66
2023/11/13 16:42:20;;;;;;;1.88;0.63;;;;;;;13.54;100.00;98634.72;10190491;28;20051;-67
2023/11/13 16:47:21;;;;;;;1.92;0.60;;;;;;;13.55;100.00;98647.88;10204385;28;20126;-63
2023/11/13 16:52:23;;;;;;;1.13;0.60;;;;;;;13.58;100.00;98652.06;10198330;28;20130;-66
2023/11/13 16:57:24;;;;;;;1.85;0.52;;;;;;;13.59;100.00;98638.50;10200835;28;20051;-68
2023/11/13 17:02:26;;;;;;;2.08;1.10;;;;;;;13.60;100.00;98633.97;10202984;28;20070;-69
2023/11/13 17:07:29;;;;;;;2.03;0.68;;;;;;;13.59;100.00;98637.69;10213533;28;20106;-67
2023/11/13 17:12:31;;;;;;;2.13;0.80;;;;;;;13.59;100.00;98641.19;10205850;28;20202;-67
2023/11/13 17:17:33;;;;;;;2.25;0.60;;;;;;;13.59;100.00;98653.72;10205795;28;20054;-68
2023/11/13 17:22:34;;;;;;;1.80;0.70;;;;;;;13.57;100.00;98645.03;10191397;28;20134;-67
2023/11/13 17:27:36;;;;;;;1.73;0.80;;;;;;;13.63;100.00;98648.81;10198258;28;20138;-68
2023/11/13 17:32:38;;;;;;;1.95;0.90;;;;;;;13.62;100.00;98631.97;10200306;28;20504;-67
2023/11/13 17:37:39;;;;;;;0.95;0.70;;;;;;;13.65;100.00;98631.59;10200347;28;20571;-67
2023/11/13 17:42:42;;;;;;;0.75;0.40;;;;;;;13.69;100.00;98624.03;10215065;28;20182;-67
2023/11/13 17:47:43;;;;;;;2.35;0.50;;;;;;;13.65;100.00;98638.81;10183897;28;20129;-67
2023/11/13 17:52:45;;;;;;;2.72;0.43;;;;;;;13.68;100.00;98644.59;10212152;28;20094;-68
2023/11/13 17:57:48;;;;;;;1.33;0.70;;;;;;;13.72;100.00;98637.03;10203548;28;20058;-67
2023/11/13 18:02:49;;;;;;;2.63;0.82;;;;;;;13.74;100.00;98635.03;10211948;28;20057;-66
2023/11/13 18:07:51;;;;;;;1.35;0.60;;;;;;;13.77;100.00;98640.00;10223669;28;20050;-67
2023/11/13 18:12:54;;;;;;;1.33;0.57;;;;;;;13.82;100.00;98658.16;10213119;28;20122;-67
2023/11/13 18:17:57;;;;;;;1.63;0.93;;;;;;;13.83;100.00;98635.78;10211207;28;20434;-68
2023/11/13 18:22:58;;;;;;;1.48;0.60;;;;;;;13.88;100.00;98654.75;10208390;28;20051;-68
2023/11/13 18:28:01;;;;;;;1.83;0.65;;;;;;;13.86;100.00;98657.63;10203640;28;20183;-68
2023/11/13 18:33:03;;;;;;;0.77;0.32;;;;;;;13.86;100.00;98697.75;10204281;28;20150;-67
2023/11/13 18:38:04;;;;;;;2.88;0.90;;;;;;;13.81;100.00;98748.28;10205561;28;20082;-69
2023/11/13 18:43:06;;;;;;;0.90;0.32;;;;;;;13.73;100.00;98757.19;10215340;28;20074;-67
2023/11/13 18:48:08;;;;;;;3.33;0.88;;;;;;;13.68;100.00;98748.88;10204428;28;20557;-67
2023/11/13 18:53:10;;;;;;;1.55;0.25;;;;;;;13.84;100.00;98757.75;10209578;28;20363;-68
2023/11/13 18:58:12;;;;;;;1.20;0.40;;;;;;;13.81;100.00;98744.75;10205573;28;20067;-66
2023/11/13 19:03:14;;;;;;;1.67;0.38;;;;;;;13.89;100.00;98756.22;10204417;28;20062;-68
2023/11/13 19:08:16;;;;;;;1.65;0.90;;;;;;;13.93;100.00;98762.03;10201887;28;20450;-68
2023/11/13 19:13:17;;;;;;;1.63;0.38;;;;;;;13.92;100.00;98760.38;10205506;28;20059;-68
2023/11/13 19:18:20;;;;;;;2.67;0.65;;;;;;;13.88;100.00;98770.59;10206493;28;20488;-68
2023/11/13 19:23:22;;;;;;;2.85;0.63;;;;;;;13.92;100.00;98771.06;10201084;28;20595;-67
2023/11/13 19:28:25;;;;;;;1.83;0.70;;;;;;;13.90;100.00;98773.94;10207534;28;20083;-67
2023/11/13 19:33:26;;;;;;;4.65;1.48;;;;;;;13.84;100.00;98771.13;10205427;28;20075;-67
2023/11/13 19:38:28;;;;;;;3.97;0.90;;;;;;;13.78;100.00;98786.06;10200849;28;20220;-66
2023/11/13 19:43:29;;;;;;;3.15;0.65;;;;;;;13.81;100.00;98795.56;10203770;28;20096;-66
2023/11/13 19:48:31;;;;;;;3.28;0.80;;;;;;;13.79;100.00;98809.13;10202156;28;20055;-68
2023/11/13 19:53:33;;;;;;;6.00;1.33;;;;;;;13.81;100.00;98835.69;10199922;28;20059;-66
2023/11/13 19:58:36;;;;;;;7.50;0.88;;;;;;;13.74;98.92;98838.25;10215137;28;20537;-66
2023/11/13 20:03:38;;;;;;;2.63;1.00;;;;;;;13.73;96.63;98860.66;10200158;28;20752;-68
2023/11/13 20:08:40;;;;;;;6.07;1.15;;;;;;;13.68;95.77;98887.91;10202748;28;20074;-68
2023/11/13 20:13:43;;;;;;;3.97;1.45;;;;;;;13.64;93.63;98891.13;10206921;28;20102;-67
2023/11/13 20:18:47;;;;;;;3.38;1.30;;;;;;;13.56;93.88;98873.31;10199829;28;20096;-66
2023/11/13 20:23:49;;;;;;;4.65;1.00;;;;;;;13.65;92.09;98908.84;10214436;28;20078;-67
2023/11/13 20:28:50;;;;;;;4.30;1.73;;;;;;;13.55;91.10;98909.06;10206317;28;20144;-68
2023/11/13 20:33:57;;;;;;;4.15;1.15;;;;;;;13.44;88.96;98903.09;10201573;28;20084;-66
2023/11/13 20:38:59;;;;;;;4.40;1.55;;;;;;;13.38;85.40;98911.00;10147843;28;1618131;-66
2023/11/13 20:44:01;;;;;;;4.78;1.10;;;;;;;13.24;83.60;98915.16;10200716;28;20060;-67
2023/11/13 20:49:03;;;;;;;2.60;1.35;;;;;;;13.12;83.34;98929.91;10199911;28;20092;-68
2023/11/13 20:54:06;;;;;;;3.20;0.82;;;;;;;13.09;84.46;98941.81;10198783;28;20137;-68
2023/11/13 20:59:07;;;;;;;4.20;0.50;;;;;;;13.08;84.68;98937.44;10199382;28;20056;-68
2023/11/13 21:04:09;;;;;;;4.18;1.00;;;;;;;13.06;86.24;98937.63;10199040;28;20059;-68
2023/11/13 21:09:11;;;;;;;5.28;1.00;;;;;;;13.12;87.56;98970.00;10204092;28;20055;-66
2023/11/13 21:14:12;;;;;;;3.72;1.77;;;;;;;13.00;86.44;98970.38;10201235;28;20809;-66
2023/11/13 21:19:14;;;;;;;4.15;1.50;;;;;;;12.84;84.99;98959.72;10213119;28;20059;-67
2023/11/13 21:24:15;;;;;;;4.82;1.58;;;;;;;12.89;84.25;98984.06;10205389;28;20070;-67
2023/11/13 21:29:16;;;;;;;5.93;1.10;;;;;;;12.81;81.25;99000.94;10208407;28;20043;-66
2023/11/13 21:34:20;;;;;;;4.05;1.38;;;;;;;12.74;81.30;98997.28;10209501;28;20609;-67
2023/11/13 21:39:22;;;;;;;5.80;1.83;;;;;;;12.80;79.76;99014.47;10208135;28;20119;-67
2023/11/13 21:44:23;;;;;;;5.50;1.00;;;;;;;12.69;80.48;99035.16;10207992;28;20455;-67
2023/11/13 21:49:25;;;;;;;7.10;2.35;;;;;;;12.65;81.55;99043.66;10208886;28;20055;-67
2023/11/13 21:54:26;;;;;;;6.13;1.67;;;;;;;12.56;78.27;99034.81;10208350;28;20062;-67
2023/11/13 21:59:29;;;;;;;10.23;2.45;;;;;;;12.48;78.87;99045.50;10199360;28;20058;-67
2023/11/13 22:04:32;;;;;;;10.02;2.35;;;;;;;12.48;78.68;99062.34;10207917;28;20059;-66
2023/11/13 22:09:37;;;;;;;9.45;2.17;;;;;;;12.51;79.34;99058.50;10202587;28;20035;-66
2023/11/13 22:14:39;;;;;;;8.15;2.55;;;;;;;12.35;78.33;99067.31;10206328;28;20092;-68
2023/11/13 22:19:41;;;;;;;9.35;2.00;;;;;;;12.32;78.34;99081.00;10213145;28;20051;-68
2023/11/13 22:24:43;;;;;;;7.28;1.83;;;;;;;12.29;78.94;99078.66;10203706;28;20054;-65
2023/11/13 22:29:46;;;;;;;9.18;2.45;;;;;;;12.30;80.43;99085.66;10211999;28;20055;-66
2023/11/13 22:34:47;;;;;;;12.95;3.58;;;;;;;12.25;79.72;99099.50;10205285;28;20122;-67
2023/11/13 22:39:48;;;;;;;9.57;2.80;;;;;;;12.26;80.31;99095.81;10211582;28;20700;-66
2023/11/13 22:44:50;;;;;;;11.05;3.15;;;;;;;12.35;79.76;99097.50;10214650;28;20048;-66
2023/11/13 22:49:52;;;;;;;11.35;2.55;;;;;;;12.33;80.98;99109.34;10218946;28;20043;-67
2023/11/13 22:54:55;;;;;;;9.40;2.50;;;;;;;12.34;80.67;99111.00;10210441;28;21431;-67
2023/11/13 22:59:57;;;;;;;8.50;2.92;;;;;;;12.31;80.11;99112.19;10199225;28;20090;-66
2023/11/13 23:05:00;;;;;;;11.35;3.33;;;;;;;12.28;81.34;99136.53;10202313;28;20055;-66
2023/11/13 23:10:02;;;;;;;8.98;2.13;;;;;;;12.22;80.16;99137.16;10207729;28;20047;-67
2023/11/13 23:15:04;;;;;;;10.02;2.90;;;;;;;12.20;81.12;99134.66;10202539;28;20113;-67
2023/11/13 23:20:08;;;;;;;8.50;2.47;;;;;;;12.21;81.88;99140.81;10214584;28;20066;-67
2023/11/13 23:25:11;;;;;;;9.45;2.70;;;;;;;12.17;81.94;99144.81;10204777;28;20065;-67
2023/11/13 23:30:12;;;;;;;9.45;2.85;;;;;;;12.12;81.99;99144.47;10203070;28;20058;-67